createdAt,value
2019-02-19T00:01:57.942Z,7.11
2019-02-19T00:04:29.622Z,6.96
2019-02-19T00:07:00.904Z,7.05
2019-02-19T00:09:32.353Z,7.19
2019-02-19T00:12:03.905Z,7.25
2019-02-19T00:14:35.586Z,7.30
2019-02-19T00:17:07.675Z,7.19
2019-02-19T00:19:38.966Z,7.27
2019-02-19T00:22:11.029Z,7.38
2019-02-19T00:24:42.302Z,7.24
2019-02-19T00:27:13.861Z,7.09
2019-02-19T00:29:45.075Z,7.20
2019-02-19T00:32:16.413Z,7.19
2019-02-19T00:34:48.313Z,7.27
2019-02-19T00:37:19.971Z,7.22
2019-02-19T00:39:51.544Z,7.21
2019-02-19T00:42:23.231Z,7.09
2019-02-19T00:44:54.525Z,6.96
2019-02-19T00:47:25.861Z,7.03
2019-02-19T00:49:57.216Z,7.05
2019-02-19T00:52:29.126Z,7.03
2019-02-19T00:55:00.423Z,6.99
2019-02-19T00:57:31.786Z,6.88
2019-02-19T01:00:03.296Z,6.86
2019-02-19T01:02:35.084Z,6.89
2019-02-19T01:05:06.843Z,6.89
2019-02-19T01:07:38.456Z,6.78
2019-02-19T01:10:09.952Z,6.76
2019-02-19T01:12:41.187Z,6.70
2019-02-19T01:15:12.441Z,6.58
2019-02-19T01:17:43.757Z,6.61
2019-02-19T01:20:15.616Z,6.59
2019-02-19T01:22:46.902Z,6.53
2019-02-19T01:25:18.668Z,6.41
2019-02-19T01:27:50.014Z,6.49
2019-02-19T01:30:21.202Z,6.46
2019-02-19T01:32:52.493Z,6.36
2019-02-19T01:35:25.067Z,6.33
2019-02-19T01:37:56.487Z,6.31
2019-02-19T01:40:28.123Z,6.38
2019-02-19T01:42:59.492Z,6.38
2019-02-19T01:45:34.026Z,6.33
2019-02-19T01:48:03.856Z,6.28
2019-02-19T01:50:35.204Z,6.26
2019-02-19T01:53:06.870Z,6.31
2019-02-19T01:55:38.676Z,6.30
2019-02-19T01:58:09.911Z,6.25
2019-02-19T02:00:41.242Z,6.22
2019-02-19T02:03:12.482Z,6.36
2019-02-19T02:05:43.878Z,6.25
2019-02-19T02:08:15.137Z,6.16
2019-02-19T02:10:47.038Z,6.11
2019-02-19T02:13:18.413Z,6.01
2019-02-19T02:15:49.715Z,5.97
2019-02-19T02:18:22.543Z,5.93
2019-02-19T02:20:54.125Z,6.04
2019-02-19T02:23:25.785Z,6.04
2019-02-19T02:25:57.510Z,5.97
2019-02-19T02:28:29.631Z,6.00
2019-02-19T02:31:00.956Z,6.13
2019-02-19T02:33:32.216Z,6.01
2019-02-19T02:36:04.280Z,5.95
2019-02-19T02:38:35.551Z,6.01
2019-02-19T02:41:06.979Z,6.01
2019-02-19T02:43:38.258Z,6.07
2019-02-19T02:46:09.575Z,6.01
2019-02-19T02:48:41.470Z,6.03
2019-02-19T02:51:12.751Z,6.06
2019-02-19T02:53:44.847Z,5.98
2019-02-19T02:56:16.873Z,6.02
2019-02-19T02:58:48.192Z,6.03
2019-02-19T03:01:19.627Z,6.01
2019-02-19T03:03:50.924Z,5.84
2019-02-19T03:08:52.270Z,6.00
2019-02-19T03:11:23.575Z,6.00
2019-02-19T03:13:55.292Z,6.00
2019-02-19T03:16:26.552Z,5.91
2019-02-19T03:18:57.972Z,5.96
2019-02-19T03:21:29.312Z,5.97
2019-02-19T03:24:00.561Z,5.84
2019-02-19T03:26:32.001Z,5.72
2019-02-19T03:29:03.252Z,5.73
2019-02-19T03:31:34.518Z,5.74
2019-02-19T03:34:06.148Z,5.68
2019-02-19T03:36:37.462Z,5.77
2019-02-19T03:39:08.794Z,5.90
2019-02-19T03:41:41.373Z,5.79
2019-02-19T03:44:12.541Z,5.79
2019-02-19T03:46:44.172Z,5.89
2019-02-19T03:49:15.956Z,5.87
2019-02-19T03:51:47.655Z,5.88
2019-02-19T03:54:19.343Z,5.87
2019-02-19T03:56:50.627Z,5.96
2019-02-19T03:59:22.268Z,5.87
2019-02-19T04:01:54.005Z,5.81
2019-02-19T04:04:25.799Z,5.77
2019-02-19T04:06:57.529Z,5.71
2019-02-19T04:09:29.960Z,5.75
2019-02-19T04:12:01.265Z,5.74
2019-02-19T04:14:32.944Z,5.74
2019-02-19T04:17:04.293Z,5.63
2019-02-19T04:19:35.882Z,5.64
2019-02-19T04:22:08.124Z,5.64
2019-02-19T04:24:39.831Z,5.66
2019-02-19T04:27:11.686Z,5.67
2019-02-19T04:29:43.107Z,5.64
2019-02-19T04:32:14.411Z,5.63
2019-02-19T04:34:45.752Z,5.63
2019-02-19T04:37:17.675Z,5.56
2019-02-19T04:39:48.937Z,5.52
2019-02-19T04:42:20.553Z,5.54
2019-02-19T04:44:52.334Z,5.52
2019-02-19T04:47:23.683Z,5.49
2019-02-19T04:49:55.649Z,5.59
2019-02-19T04:52:26.931Z,5.57
2019-02-19T04:54:58.789Z,5.56
2019-02-19T04:57:30.032Z,5.56
2019-02-19T05:00:01.304Z,5.61
2019-02-19T05:02:34.535Z,5.54
2019-02-19T05:05:06.238Z,5.57
2019-02-19T05:07:37.553Z,5.62
2019-02-19T05:10:09.254Z,5.66
2019-02-19T05:12:40.936Z,5.67
2019-02-19T05:15:12.418Z,5.60
2019-02-19T05:17:43.736Z,5.57
2019-02-19T05:20:15.163Z,5.61
2019-02-19T05:22:46.791Z,5.57
2019-02-19T05:25:19.075Z,5.58
2019-02-19T05:27:50.901Z,5.58
2019-02-19T05:30:22.945Z,5.60
2019-02-19T05:32:54.848Z,5.59
2019-02-19T05:35:26.417Z,5.54
2019-02-19T05:37:58.121Z,5.53
2019-02-19T05:40:29.705Z,5.59
2019-02-19T05:43:01.574Z,5.55
2019-02-19T05:45:33.207Z,5.50
2019-02-19T05:48:05.371Z,5.52
2019-02-19T05:50:37.395Z,5.56
2019-02-19T05:53:08.975Z,5.55
2019-02-19T05:55:40.626Z,5.59
2019-02-19T05:58:11.899Z,5.66
2019-02-19T06:00:43.799Z,5.60
2019-02-19T06:03:15.088Z,5.66
2019-02-19T06:05:46.410Z,5.68
2019-02-19T06:08:17.816Z,5.75
2019-02-19T06:10:49.376Z,5.77
2019-02-19T06:13:20.788Z,5.84
2019-02-19T06:15:52.033Z,5.92
2019-02-19T06:18:24.320Z,5.86
2019-02-19T06:20:56.512Z,5.91
2019-02-19T06:23:27.822Z,5.97
2019-02-19T06:25:59.184Z,5.98
2019-02-19T06:28:30.848Z,6.00
2019-02-19T06:31:02.149Z,6.10
2019-02-19T06:33:34.100Z,6.08
2019-02-19T06:36:05.804Z,6.06
2019-02-19T06:38:37.714Z,6.10
2019-02-19T06:41:09.576Z,6.17
2019-02-19T06:43:41.219Z,6.19
2019-02-19T06:46:12.539Z,6.12
2019-02-19T06:48:44.169Z,6.19
2019-02-19T06:51:15.989Z,6.22
2019-02-19T06:53:48.416Z,6.20
2019-02-19T06:56:20.257Z,6.23
2019-02-19T06:58:52.000Z,6.29
2019-02-19T07:01:42.782Z,6.27
2019-02-19T07:04:22.390Z,6.27
2019-02-19T07:06:54.010Z,6.24
2019-02-19T07:09:25.532Z,6.23
2019-02-19T07:11:56.879Z,6.24
2019-02-19T07:14:29.695Z,6.22
2019-02-19T07:17:01.020Z,6.24
2019-02-19T07:19:32.774Z,6.28
2019-02-19T07:22:04.416Z,6.29
2019-02-19T07:24:35.716Z,6.25
2019-02-19T07:27:08.106Z,6.26
2019-02-19T07:29:39.377Z,6.27
2019-02-19T07:32:11.080Z,6.25
2019-02-19T07:34:43.083Z,6.25
2019-02-19T07:37:15.172Z,6.31
2019-02-19T07:39:46.375Z,6.31
2019-02-19T07:42:18.156Z,6.35
2019-02-19T07:44:49.783Z,6.46
2019-02-19T07:47:24.598Z,6.55
2019-02-19T07:49:54.648Z,6.57
2019-02-19T07:52:30.533Z,6.57
2019-02-19T07:55:02.748Z,6.58
2019-02-19T07:57:34.397Z,6.68
2019-02-19T08:00:08.655Z,6.71
2019-02-19T08:02:40.498Z,6.72
2019-02-19T08:05:12.389Z,6.73
2019-02-19T08:07:44.602Z,6.73
2019-02-19T08:10:16.616Z,6.77
2019-02-19T08:12:48.594Z,6.82
2019-02-19T08:15:20.597Z,6.89
2019-02-19T08:17:51.994Z,6.97
2019-02-19T08:20:23.512Z,6.96
2019-02-19T08:22:55.835Z,6.96
2019-02-19T08:25:27.247Z,6.98
2019-02-19T08:27:58.814Z,6.99
2019-02-19T08:30:30.511Z,7.05
2019-02-19T08:33:01.895Z,7.11
2019-02-19T08:35:33.896Z,7.13
2019-02-19T08:38:06.901Z,7.19
2019-02-19T08:40:38.482Z,7.23
2019-02-19T08:43:10.213Z,7.25
2019-02-19T08:45:41.517Z,7.26
2019-02-19T08:48:13.134Z,7.30
2019-02-19T08:50:45.332Z,7.31
2019-02-19T08:53:16.585Z,7.37
2019-02-19T08:55:48.016Z,7.40
2019-02-19T08:58:19.467Z,7.49
2019-02-19T09:00:50.720Z,7.51
2019-02-19T09:03:22.284Z,7.54
2019-02-19T09:05:53.652Z,7.54
2019-02-19T09:08:25.512Z,7.57
2019-02-19T09:10:56.858Z,7.62
2019-02-19T09:13:28.228Z,7.60
2019-02-19T09:15:59.551Z,7.60
2019-02-19T09:18:31.141Z,7.65
2019-02-19T09:21:04.135Z,7.66
2019-02-19T09:23:35.358Z,7.67
2019-02-19T09:26:07.314Z,7.66
2019-02-19T09:28:38.658Z,7.66
2019-02-19T09:31:10.505Z,7.66
2019-02-19T09:33:41.786Z,7.67
2019-02-19T09:36:13.074Z,7.70
2019-02-19T09:38:44.794Z,7.73
2019-02-19T09:41:16.226Z,7.78
2019-02-19T09:43:47.964Z,7.82
2019-02-19T09:46:19.348Z,7.91
2019-02-19T09:48:51.270Z,8.03
2019-02-19T09:51:23.205Z,8.08
2019-02-19T09:53:54.506Z,8.12
2019-02-19T09:56:26.078Z,8.17
2019-02-19T09:58:57.394Z,8.17
2019-02-19T10:01:28.747Z,8.31
2019-02-19T10:04:00.434Z,8.31
2019-02-19T10:06:31.711Z,8.42
2019-02-19T10:09:03.274Z,8.51
2019-02-19T10:11:35.352Z,8.63
2019-02-19T10:14:07.080Z,8.67
2019-02-19T10:16:41.723Z,8.91
2019-02-19T10:19:13.434Z,9.01
2019-02-19T10:21:45.763Z,9.13
2019-02-19T10:24:17.087Z,9.20
2019-02-19T10:26:49.659Z,9.17
2019-02-19T10:29:21.155Z,9.25
2019-02-19T10:31:52.729Z,9.24
2019-02-19T10:34:24.057Z,9.41
2019-02-19T10:36:55.505Z,9.46
2019-02-19T10:39:27.117Z,9.56
2019-02-19T10:41:58.419Z,9.50
2019-02-19T10:44:30.066Z,9.61
2019-02-19T10:47:01.354Z,9.64
2019-02-19T10:49:33.294Z,9.67
2019-02-19T10:52:04.598Z,9.56
2019-02-19T10:54:36.193Z,9.51
2019-02-19T10:57:07.755Z,9.68
2019-02-19T10:59:39.367Z,9.65
2019-02-19T11:02:10.920Z,9.64
2019-02-19T11:04:42.570Z,9.67
2019-02-19T11:07:14.617Z,9.66
2019-02-19T11:09:45.993Z,9.75
2019-02-19T11:12:17.324Z,9.94
2019-02-19T11:14:48.698Z,10.08
2019-02-19T11:17:20.078Z,10.39
2019-02-19T11:19:51.341Z,10.22
2019-02-19T11:22:22.634Z,10.32
2019-02-19T11:24:53.890Z,10.19
2019-02-19T11:27:25.168Z,10.10
2019-02-19T11:29:56.495Z,10.24
2019-02-19T11:32:28.848Z,10.30
2019-02-19T11:35:00.963Z,10.37
2019-02-19T11:37:32.775Z,10.42
2019-02-19T11:40:04.066Z,10.61
2019-02-19T11:42:35.780Z,10.87
2019-02-19T11:45:09.362Z,10.87
2019-02-19T11:47:41.405Z,10.69
2019-02-19T11:50:13.992Z,10.62
2019-02-19T11:52:46.265Z,10.48
2019-02-19T11:55:17.658Z,10.56
2019-02-19T11:57:49.254Z,10.63
2019-02-19T12:00:24.742Z,10.50
2019-02-19T12:02:56.351Z,10.35
2019-02-19T12:05:27.628Z,10.22
2019-02-19T12:07:58.951Z,10.34
2019-02-19T12:10:30.392Z,10.25
2019-02-19T12:13:02.381Z,10.20
2019-02-19T12:15:35.439Z,10.29
2019-02-19T12:18:07.244Z,10.49
2019-02-19T12:20:38.487Z,10.68
2019-02-19T12:23:10.474Z,10.88
2019-02-19T12:25:41.726Z,10.95
2019-02-19T12:28:12.953Z,10.92
2019-02-19T12:30:45.703Z,11.07
2019-02-19T12:33:17.242Z,11.03
2019-02-19T12:35:48.537Z,11.24
2019-02-19T12:38:19.844Z,11.43
2019-02-19T12:40:51.115Z,11.36
2019-02-19T12:43:22.417Z,11.25
2019-02-19T12:45:54.101Z,11.11
2019-02-19T12:48:27.980Z,11.25
2019-02-19T12:50:59.714Z,10.97
2019-02-19T12:53:31.470Z,10.96
2019-02-19T12:56:03.627Z,11.05
2019-02-19T12:58:35.643Z,10.66
2019-02-19T13:01:08.613Z,10.76
2019-02-19T13:03:39.871Z,10.87
2019-02-19T13:06:11.088Z,10.82
2019-02-19T13:08:42.695Z,10.78
2019-02-19T13:11:16.058Z,10.71
2019-02-19T13:13:47.956Z,10.61
2019-02-19T13:16:19.768Z,10.48
2019-02-19T13:18:51.310Z,10.41
2019-02-19T13:21:23.160Z,10.42
2019-02-19T13:23:55.060Z,10.45
2019-02-19T13:26:26.799Z,10.38
2019-02-19T13:28:58.144Z,10.44
2019-02-19T13:31:29.508Z,10.38
2019-02-19T13:34:02.097Z,10.32
2019-02-19T13:36:33.645Z,10.17
2019-02-19T13:39:06.010Z,10.01
2019-02-19T13:41:37.937Z,10.02
2019-02-19T13:44:10.042Z,10.05
2019-02-19T13:46:41.297Z,9.73
2019-02-19T13:49:13.186Z,9.77
2019-02-19T13:51:44.431Z,9.86
2019-02-19T13:54:20.203Z,9.69
2019-02-19T13:56:52.028Z,9.64
2019-02-19T13:59:23.304Z,9.73
2019-02-19T14:01:54.892Z,9.50
2019-02-19T14:04:26.137Z,9.60
2019-02-19T14:06:57.790Z,9.64
2019-02-19T14:09:29.115Z,9.54
2019-02-19T14:12:00.778Z,9.50
2019-02-19T14:14:37.554Z,9.44
2019-02-19T14:17:12.541Z,9.54
2019-02-19T14:19:47.172Z,9.55
2019-02-19T14:22:36.133Z,9.54
2019-02-19T14:25:34.034Z,9.43
2019-02-19T14:28:33.839Z,9.36
2019-02-19T14:31:30.120Z,9.39
2019-02-19T14:34:23.378Z,9.27
2019-02-19T14:37:23.219Z,9.30
2019-02-19T14:40:13.491Z,9.37
2019-02-19T14:43:04.232Z,9.42
2019-02-19T14:45:57.150Z,9.35
2019-02-19T14:48:56.819Z,9.17
2019-02-19T14:51:45.687Z,9.14
2019-02-19T14:54:34.401Z,9.16
2019-02-19T14:57:24.627Z,9.17
2019-02-19T15:00:17.062Z,9.26
2019-02-19T15:03:06.960Z,9.11
2019-02-19T15:05:55.984Z,9.14
2019-02-19T15:08:44.699Z,9.06
2019-02-19T15:11:27.294Z,9.10
2019-02-19T15:14:18.304Z,8.94
2019-02-19T15:17:08.404Z,8.97
2019-02-19T15:20:01.673Z,9.00
2019-02-19T15:22:54.867Z,9.00
2019-02-19T15:25:43.851Z,8.93
2019-02-19T15:28:40.058Z,8.96
2019-02-19T15:31:36.837Z,8.94
2019-02-19T15:34:23.662Z,8.93
2019-02-19T15:37:13.135Z,8.88
2019-02-19T15:40:06.980Z,8.83
2019-02-19T15:43:03.381Z,8.87
2019-02-19T15:45:52.092Z,8.89
2019-02-19T15:48:54.559Z,8.83
2019-02-19T15:51:50.752Z,8.83
2019-02-19T15:54:46.998Z,8.83
2019-02-19T15:57:49.369Z,8.87
2019-02-19T16:00:39.650Z,8.81
2019-02-19T16:03:36.810Z,8.79
2019-02-19T16:06:41.957Z,8.82
2019-02-19T16:09:34.887Z,8.79
2019-02-19T16:12:29.292Z,8.77
2019-02-19T16:15:06.476Z,8.80
2019-02-19T16:17:59.399Z,8.77
2019-02-19T16:20:55.547Z,8.77
2019-02-19T16:23:45.778Z,8.76
2019-02-19T16:26:45.267Z,8.81
2019-02-19T16:29:41.432Z,8.76
2019-02-19T16:32:38.209Z,8.75
2019-02-19T16:35:27.457Z,8.77
2019-02-19T16:38:13.442Z,8.76
2019-02-19T16:41:03.762Z,8.75
2019-02-19T16:44:13.065Z,8.72
2019-02-19T16:47:03.231Z,8.69
2019-02-19T16:49:51.313Z,8.63
2019-02-19T16:52:45.147Z,8.53
2019-02-19T16:55:42.123Z,8.46
2019-02-19T16:58:27.734Z,8.43
2019-02-19T17:01:21.164Z,8.37
2019-02-19T17:04:17.731Z,8.32
2019-02-19T17:07:09.988Z,8.27
2019-02-19T17:10:12.073Z,8.27
2019-02-19T17:13:00.716Z,8.16
2019-02-19T17:15:49.422Z,8.13
2019-02-19T17:18:45.550Z,8.08
2019-02-19T17:21:40.375Z,8.06
2019-02-19T17:24:29.199Z,7.95
2019-02-19T17:27:17.818Z,8.00
2019-02-19T17:30:06.755Z,7.98
2019-02-19T17:32:47.972Z,7.98
2019-02-19T17:35:44.395Z,7.97
2019-02-19T17:38:21.577Z,7.73
2019-02-19T17:41:03.015Z,7.62
2019-02-19T17:43:48.612Z,7.41
2019-02-19T17:46:32.758Z,7.19
2019-02-19T17:49:25.969Z,7.20
2019-02-19T17:52:10.085Z,7.07
2019-02-19T17:54:56.550Z,7.10
2019-02-19T17:57:46.684Z,7.15
2019-02-19T18:00:35.252Z,7.13
2019-02-19T18:03:27.169Z,7.10
2019-02-19T18:06:17.030Z,7.06
2019-02-19T18:09:10.462Z,7.07
2019-02-19T18:11:49.425Z,7.05
2019-02-19T18:14:38.668Z,7.00
2019-02-19T18:17:32.012Z,6.99
2019-02-19T18:20:04.025Z,6.96
2019-02-19T18:22:35.704Z,6.94
2019-02-19T18:25:07.622Z,6.92
2019-02-19T18:27:39.236Z,6.92
2019-02-19T18:30:10.816Z,6.93
2019-02-19T18:32:42.564Z,6.92
2019-02-19T18:35:14.865Z,6.89
2019-02-19T18:37:46.178Z,6.80
2019-02-19T18:40:17.540Z,6.82
2019-02-19T18:42:49.607Z,6.79
2019-02-19T18:45:21.077Z,6.78
2019-02-19T18:47:52.757Z,6.78
2019-02-19T18:50:24.019Z,6.78
2019-02-19T18:53:00.016Z,6.72
2019-02-19T18:55:31.651Z,6.71
2019-02-19T18:58:06.387Z,6.67
2019-02-19T19:00:38.278Z,6.71
2019-02-19T19:03:09.908Z,6.66
2019-02-19T19:05:43.612Z,6.62
2019-02-19T19:08:28.828Z,6.63
2019-02-19T19:10:59.691Z,6.60
2019-02-19T19:13:36.283Z,6.57
2019-02-19T19:16:07.591Z,6.59
2019-02-19T19:18:39.513Z,6.61
2019-02-19T19:21:15.077Z,6.65
2019-02-19T19:23:52.826Z,6.64
2019-02-19T19:26:32.990Z,6.65
2019-02-19T19:29:04.392Z,6.70
2019-02-19T19:31:36.040Z,6.64
2019-02-19T19:34:07.373Z,6.70
2019-02-19T19:36:39.032Z,6.68
2019-02-19T19:39:10.761Z,6.66
2019-02-19T19:41:42.206Z,6.63
2019-02-19T19:44:13.754Z,6.62
2019-02-19T19:46:45.986Z,6.67
2019-02-19T19:49:17.438Z,6.65
2019-02-19T19:51:48.856Z,6.57
2019-02-19T19:54:20.454Z,6.59
2019-02-19T19:56:51.776Z,6.60
2019-02-19T19:59:23.350Z,6.55
2019-02-19T20:01:54.943Z,6.49
2019-02-19T20:04:26.628Z,6.41
2019-02-19T20:06:58.252Z,6.46
2019-02-19T20:09:29.670Z,6.47
2019-02-19T20:12:04.225Z,6.38
2019-02-19T20:14:35.494Z,6.41
2019-02-19T20:17:06.906Z,6.38
2019-02-19T20:19:38.865Z,6.36
2019-02-19T20:22:10.544Z,6.33
2019-02-19T20:24:41.802Z,6.33
2019-02-19T20:27:13.190Z,6.33
2019-02-19T20:29:45.152Z,6.29
2019-02-19T20:32:16.680Z,6.27
2019-02-19T20:34:48.146Z,6.28
2019-02-19T20:37:22.154Z,6.30
2019-02-19T20:39:53.145Z,6.29
2019-02-19T20:42:24.904Z,6.37
2019-02-19T20:44:56.332Z,6.36
2019-02-19T20:47:28.308Z,6.33
2019-02-19T20:49:59.806Z,6.33
2019-02-19T20:52:31.222Z,6.35
2019-02-19T20:55:02.493Z,6.35
2019-02-19T20:57:35.268Z,6.30
2019-02-19T21:00:10.301Z,6.34
2019-02-19T21:02:41.714Z,6.37
2019-02-19T21:05:13.138Z,6.39
2019-02-19T21:07:44.764Z,6.36
2019-02-19T21:10:18.138Z,6.35
2019-02-19T21:12:50.040Z,6.38
2019-02-19T21:15:21.400Z,6.33
2019-02-19T21:17:52.720Z,6.32
2019-02-19T21:20:24.362Z,6.33
2019-02-19T21:22:55.692Z,6.34
2019-02-19T21:25:30.966Z,6.38
2019-02-19T21:27:59.839Z,6.40
2019-02-19T21:37:16.066Z,6.39
2019-02-19T21:39:47.455Z,6.39
2019-02-19T21:42:18.969Z,6.38
2019-02-19T21:44:50.373Z,6.40
2019-02-19T21:47:22.068Z,6.40
2019-02-19T21:49:54.487Z,6.40
2019-02-19T21:52:28.230Z,6.40
2019-02-19T21:55:00.047Z,6.40
2019-02-19T21:57:32.378Z,6.37
2019-02-19T22:00:03.805Z,6.36
2019-02-19T22:02:35.243Z,6.36
2019-02-19T22:05:09.999Z,6.37
2019-02-19T22:07:41.401Z,6.35
2019-02-19T22:10:13.042Z,6.37
2019-02-19T22:12:44.676Z,6.38
2019-02-19T22:15:16.238Z,6.32
2019-02-19T22:17:47.579Z,6.39
2019-02-19T22:20:34.912Z,6.38
2019-02-19T22:23:06.997Z,6.38
2019-02-19T22:25:39.128Z,6.32
2019-02-19T22:28:10.543Z,6.30
2019-02-19T22:30:42.256Z,6.34
2019-02-19T22:33:13.623Z,6.42
2019-02-19T22:35:44.960Z,6.40
2019-02-19T22:38:17.605Z,6.39
2019-02-19T22:40:54.956Z,6.38
2019-02-19T22:43:22.677Z,6.39
2019-02-19T22:45:54.349Z,6.36
2019-02-19T22:48:31.578Z,6.40
2019-02-19T22:51:03.067Z,6.35
2019-02-19T22:54:05.733Z,6.36
2019-02-19T22:56:40.183Z,6.34
2019-02-19T22:59:12.400Z,6.39
2019-02-19T23:02:07.435Z,6.39
2019-02-19T23:04:39.192Z,6.41
2019-02-19T23:07:10.597Z,6.39
2019-02-19T23:09:43.252Z,6.38
2019-02-19T23:12:14.967Z,6.41
2019-02-19T23:14:47.443Z,6.40
2019-02-19T23:17:19.495Z,6.40
2019-02-19T23:19:51.001Z,6.38
2019-02-19T23:22:22.346Z,6.38
2019-02-19T23:24:53.790Z,6.35
2019-02-19T23:27:25.173Z,6.35
2019-02-19T23:29:57.018Z,6.38
2019-02-19T23:32:28.420Z,6.37
2019-02-19T23:35:23.360Z,6.36
2019-02-19T23:37:56.179Z,6.36
2019-02-19T23:40:27.577Z,6.33
2019-02-19T23:43:00.183Z,6.32
2019-02-19T23:45:32.127Z,6.33
2019-02-19T23:48:06.815Z,6.34
2019-02-19T23:50:38.999Z,6.33
2019-02-19T23:53:10.827Z,6.34
2019-02-19T23:55:42.217Z,6.31
2019-02-19T23:58:13.941Z,6.34
